Time;durP1;ratioP1;P1;durP2;ratioP2;P2;SDS_P1;SDS_P2;PMS_P1;PMS_P2;Temp;Humidity;BMP_temperature;BMP_pressure;BME280_temperature;BME280_humidity;BME280_pressure;Samples;Min_cycle;Max_cycle;Signal;HPM_P1;HPM_P2
2021/10/17 00:00:37;;;;;;;14.68;8.27;;;10.60;67.30;;;;;;5047918;28;20021;-55
2021/10/17 00:03:03;;;;;;;18.40;9.05;;;10.60;67.30;;;;;;5050576;28;20394;-55
2021/10/17 00:05:34;;;;;;;16.67;8.00;;;10.50;67.30;;;;;;5045893;28;20033;-54
2021/10/17 00:08:00;;;;;;;14.95;8.65;;;10.50;67.20;;;;;;5047088;28;20347;-49
2021/10/17 00:10:30;;;;;;;16.58;8.88;;;10.50;67.20;;;;;;5049218;28;20032;-59
2021/10/17 00:12:58;;;;;;;13.60;7.63;;;10.50;67.30;;;;;;5034832;28;20264;-54
2021/10/17 00:15:25;;;;;;;15.35;8.40;;;10.40;67.20;;;;;;5052212;28;20040;-54
2021/10/17 00:17:52;;;;;;;14.77;8.13;;;10.40;67.20;;;;;;5052256;28;20139;-53
2021/10/17 00:20:20;;;;;;;16.17;8.35;;;10.40;67.40;;;;;;5034007;28;20029;-55
2021/10/17 00:22:47;;;;;;;13.38;7.47;;;10.40;67.50;;;;;;5036185;28;20497;-53
2021/10/17 00:25:13;;;;;;;11.70;7.82;;;10.30;67.50;;;;;;5052714;28;20058;-54
2021/10/17 00:27:42;;;;;;;14.13;7.93;;;10.30;68.20;;;;;;5052273;28;20032;-55
2021/10/17 00:30:09;;;;;;;13.35;7.40;;;10.20;67.60;;;;;;5052322;28;20185;-56
2021/10/17 00:32:35;;;;;;;13.20;6.80;;;10.20;67.80;;;;;;5035395;28;20276;-51
2021/10/17 00:35:02;;;;;;;12.10;7.00;;;10.20;67.90;;;;;;5052148;28;20029;-51
2021/10/17 00:37:29;;;;;;;12.90;7.13;;;10.10;67.90;;;;;;5051279;28;20090;-55
2021/10/17 00:39:55;;;;;;;13.55;7.63;;;10.20;68.00;;;;;;5034466;28;20037;-50
2021/10/17 00:42:21;;;;;;;11.30;6.75;;;10.20;68.10;;;;;;5052705;28;20032;-56
2021/10/17 00:44:57;;;;;;;12.95;7.22;;;10.10;68.10;;;;;;5051401;28;20036;-51
2021/10/17 00:47:41;;;;;;;14.55;7.93;;;10.10;68.30;;;;;;5033413;28;20029;-53
2021/10/17 00:50:09;;;;;;;13.93;7.55;;;10.10;68.30;;;;;;5052256;28;20021;-55
2021/10/17 00:52:35;;;;;;;13.88;7.10;;;10.10;68.30;;;;;;5050345;28;20284;-55
2021/10/17 00:55:02;;;;;;;13.38;7.55;;;10.10;68.30;;;;;;5035709;28;20104;-53
2021/10/17 00:57:28;;;;;;;14.27;7.32;;;10.10;68.30;;;;;;5051269;28;20055;-52
2021/10/17 00:59:54;;;;;;;13.65;7.20;;;10.10;68.40;;;;;;5051141;28;20029;-54
2021/10/17 01:02:19;;;;;;;11.55;6.97;;;10.10;68.40;;;;;;5033276;28;20064;-54
2021/10/17 01:04:45;;;;;;;12.55;7.85;;;10.10;68.40;;;;;;5051908;28;20072;-58
2021/10/17 01:07:11;;;;;;;10.60;7.30;;;10.10;68.30;;;;;;5034477;28;20021;-55
2021/10/17 01:09:38;;;;;;;12.38;7.18;;;10.20;68.40;;;;;;5032909;28;20021;-54
2021/10/17 01:12:05;;;;;;;13.55;7.43;;;10.20;68.30;;;;;;5033398;28;20029;-55
2021/10/17 01:14:31;;;;;;;17.88;7.75;;;10.20;68.30;;;;;;5051206;28;20087;-56
2021/10/17 01:16:58;;;;;;;14.93;7.43;;;10.20;68.20;;;;;;5053016;28;20513;-53
2021/10/17 01:19:24;;;;;;;12.77;7.55;;;10.30;68.10;;;;;;5033121;28;20028;-55
2021/10/17 01:21:50;;;;;;;14.93;8.05;;;10.20;68.00;;;;;;5051656;28;20029;-53
2021/10/17 01:24:17;;;;;;;12.80;7.20;;;10.30;68.00;;;;;;5050757;28;20076;-58
2021/10/17 01:26:44;;;;;;;15.43;7.60;;;10.30;68.00;;;;;;5052811;28;20024;-52
2021/10/17 01:29:10;;;;;;;11.57;6.65;;;10.30;67.90;;;;;;5033865;28;20078;-52
2021/10/17 01:31:46;;;;;;;14.68;7.60;;;10.30;67.90;;;;;;5032780;28;20361;-57
2021/10/17 01:34:13;;;;;;;13.52;7.68;;;10.30;67.90;;;;;;5051303;28;20063;-56
2021/10/17 01:36:40;;;;;;;11.80;7.32;;;10.20;67.90;;;;;;5051847;28;20108;-60
2021/10/17 01:39:09;;;;;;;13.40;7.38;;;10.20;67.90;;;;;;5051167;28;20033;-52
2021/10/17 01:41:35;;;;;;;11.55;7.10;;;10.20;67.80;;;;;;5051108;28;20036;-52
2021/10/17 01:44:05;;;;;;;16.35;8.07;;;10.20;67.90;;;;;;5050753;28;20037;-54
2021/10/17 01:46:31;;;;;;;19.25;7.85;;;10.20;67.90;;;;;;5050681;28;20053;-55
2021/10/17 01:48:57;;;;;;;12.15;6.85;;;10.20;67.90;;;;;;5034811;28;20059;-58
2021/10/17 01:51:22;;;;;;;14.60;7.78;;;10.10;67.80;;;;;;5050542;28;20049;-57
2021/10/17 01:53:49;;;;;;;11.48;6.35;;;10.10;67.80;;;;;;5032217;28;20037;-56
2021/10/17 01:56:15;;;;;;;13.25;7.38;;;10.10;67.90;;;;;;5049059;28;20025;-54
2021/10/17 01:58:41;;;;;;;14.48;6.78;;;10.10;68.00;;;;;;5051239;28;20052;-55
2021/10/17 02:01:06;;;;;;;13.30;6.90;;;10.00;68.00;;;;;;5033167;28;20024;-57
2021/10/17 02:03:32;;;;;;;14.45;7.85;;;10.00;68.10;;;;;;5032093;28;20351;-52
2021/10/17 02:05:58;;;;;;;13.38;6.75;;;10.00;68.10;;;;;;5049478;28;20040;-55
2021/10/17 02:08:24;;;;;;;10.13;6.85;;;10.00;68.30;;;;;;5051366;28;20048;-53
2021/10/17 02:10:49;;;;;;;13.98;7.88;;;9.90;68.30;;;;;;5050404;28;20029;-54
2021/10/17 02:13:15;;;;;;;12.85;7.47;;;10.00;68.30;;;;;;5050716;28;20033;-55
2021/10/17 02:15:41;;;;;;;15.40;7.10;;;10.00;68.30;;;;;;5032368;28;20033;-56
2021/10/17 02:18:07;;;;;;;15.00;7.40;;;9.90;68.30;;;;;;5051731;28;20025;-55
2021/10/17 02:20:34;;;;;;;13.57;7.20;;;9.90;68.30;;;;;;5049670;28;20029;-53
2021/10/17 02:23:03;;;;;;;14.63;7.30;;;9.90;68.30;;;;;;5032541;28;20063;-55
2021/10/17 02:25:30;;;;;;;13.23;6.65;;;9.80;68.40;;;;;;5049531;28;20033;-54
2021/10/17 02:27:56;;;;;;;11.57;6.93;;;9.80;68.40;;;;;;5050685;28;20053;-56
2021/10/17 02:30:21;;;;;;;10.98;6.55;;;9.80;68.40;;;;;;5050033;28;20053;-58
2021/10/17 02:32:47;;;;;;;9.95;6.47;;;9.80;68.40;;;;;;5050279;28;20067;-50
2021/10/17 02:35:13;;;;;;;12.95;6.93;;;9.80;68.50;;;;;;5048929;28;20218;-56
2021/10/17 02:37:38;;;;;;;13.18;7.30;;;9.80;68.40;;;;;;5051006;28;20078;-55
2021/10/17 02:40:05;;;;;;;14.05;7.30;;;9.80;68.50;;;;;;5032044;28;20036;-54
2021/10/17 02:42:31;;;;;;;17.20;8.05;;;9.70;68.30;;;;;;5050064;28;20067;-54
2021/10/17 02:44:56;;;;;;;13.48;7.65;;;9.70;68.20;;;;;;5050350;28;20068;-56
2021/10/17 02:47:22;;;;;;;13.82;7.35;;;9.60;68.30;;;;;;5032022;28;20024;-55
2021/10/17 02:49:48;;;;;;;14.80;6.93;;;9.60;68.30;;;;;;5050779;28;20055;-50
2021/10/17 02:52:14;;;;;;;13.95;6.90;;;9.50;68.40;;;;;;5049566;28;20151;-53
2021/10/17 02:54:39;;;;;;;10.80;6.80;;;9.50;68.50;;;;;;5048853;28;20079;-55
2021/10/17 02:57:24;;;;;;;14.52;7.20;;;9.50;68.40;;;;;;5050378;28;20024;-55
2021/10/17 02:59:50;;;;;;;12.98;7.10;;;9.50;68.50;;;;;;5051463;28;20021;-54
2021/10/17 03:02:15;;;;;;;11.82;6.88;;;9.40;68.60;;;;;;5047127;28;20060;-53
2021/10/17 03:04:41;;;;;;;14.07;7.25;;;9.40;68.60;;;;;;5046519;28;20056;-54
2021/10/17 03:07:07;;;;;;;10.45;7.07;;;9.40;68.60;;;;;;5039666;28;20032;-57
2021/10/17 03:09:32;;;;;;;13.45;6.82;;;9.50;68.70;;;;;;5041310;28;20028;-57
2021/10/17 03:11:58;;;;;;;12.93;6.82;;;9.40;68.60;;;;;;5044624;28;20029;-52
2021/10/17 03:14:24;;;;;;;12.07;6.85;;;9.50;68.70;;;;;;5045980;28;20048;-56
2021/10/17 03:16:49;;;;;;;14.40;7.43;;;9.50;68.80;;;;;;5050761;28;20033;-56
2021/10/17 03:19:16;;;;;;;11.63;6.85;;;9.40;68.80;;;;;;5047838;28;20070;-54
2021/10/17 03:21:42;;;;;;;13.65;7.05;;;9.40;68.80;;;;;;5047977;28;20085;-50
2021/10/17 03:24:07;;;;;;;12.35;6.75;;;9.40;68.80;;;;;;5048671;28;20500;-55
2021/10/17 03:26:33;;;;;;;13.88;6.82;;;9.50;68.90;;;;;;5031609;28;20028;-51
2021/10/17 03:28:59;;;;;;;14.60;7.00;;;9.50;68.90;;;;;;5031380;28;20037;-52
2021/10/17 03:31:24;;;;;;;12.38;7.13;;;9.50;69.00;;;;;;5048038;28;20035;-56
2021/10/17 03:33:50;;;;;;;13.55;7.43;;;9.40;68.90;;;;;;5050029;28;20450;-54
2021/10/17 03:36:16;;;;;;;13.43;7.55;;;9.50;69.10;;;;;;5049989;28;20487;-56
2021/10/17 03:38:42;;;;;;;13.05;7.60;;;9.40;69.10;;;;;;5048088;28;20037;-54
2021/10/17 03:41:08;;;;;;;14.05;7.50;;;9.40;69.10;;;;;;5048530;28;20502;-54
2021/10/17 03:43:33;;;;;;;14.50;8.00;;;9.30;69.20;;;;;;5031536;28;20055;-57
2021/10/17 03:46:00;;;;;;;12.00;6.95;;;9.30;69.20;;;;;;5051650;28;20534;-55
2021/10/17 03:48:26;;;;;;;11.15;7.15;;;9.20;69.30;;;;;;5051744;28;20025;-54
2021/10/17 03:50:51;;;;;;;14.23;8.13;;;9.20;69.40;;;;;;5052240;28;20059;-56
2021/10/17 03:53:17;;;;;;;10.45;7.57;;;9.20;69.30;;;;;;5054335;28;20037;-56
2021/10/17 03:55:43;;;;;;;11.32;7.50;;;9.10;69.40;;;;;;5053510;28;20030;-54
2021/10/17 03:58:09;;;;;;;13.68;7.55;;;9.20;69.50;;;;;;5034960;28;20021;-55
2021/10/17 04:00:35;;;;;;;14.93;8.07;;;9.10;69.40;;;;;;5053847;28;20041;-57
2021/10/17 04:03:00;;;;;;;13.05;7.43;;;9.10;69.50;;;;;;5054890;28;20029;-52
2021/10/17 04:05:26;;;;;;;13.98;7.35;;;9.10;69.50;;;;;;5032799;28;20040;-56
2021/10/17 04:07:52;;;;;;;17.95;7.65;;;9.10;69.50;;;;;;5052722;28;20021;-52
2021/10/17 04:10:17;;;;;;;11.73;7.60;;;9.00;69.60;;;;;;5053099;28;20382;-54
2021/10/17 04:12:43;;;;;;;15.77;7.85;;;9.00;69.50;;;;;;5036205;28;20129;-52
2021/10/17 04:15:09;;;;;;;16.20;7.53;;;9.00;69.70;;;;;;5051900;28;20021;-52
2021/10/17 04:17:35;;;;;;;13.77;7.80;;;9.00;69.70;;;;;;5033524;28;20032;-56
2021/10/17 04:20:01;;;;;;;12.27;7.20;;;9.00;69.70;;;;;;5053051;28;20039;-52
2021/10/17 04:22:27;;;;;;;14.75;7.68;;;9.00;69.70;;;;;;5052564;28;20064;-51
2021/10/17 04:24:52;;;;;;;14.40;7.75;;;9.00;69.70;;;;;;5052551;28;20427;-51
2021/10/17 04:27:18;;;;;;;14.60;7.65;;;8.90;69.70;;;;;;5051312;28;20075;-51
2021/10/17 04:29:44;;;;;;;16.73;7.55;;;9.00;69.80;;;;;;5053574;28;20477;-51
2021/10/17 04:32:10;;;;;;;12.38;8.13;;;9.00;69.70;;;;;;5033292;28;20090;-49
2021/10/17 04:34:36;;;;;;;10.63;7.53;;;8.90;69.70;;;;;;5050004;28;20126;-54
2021/10/17 04:37:02;;;;;;;13.88;7.60;;;8.90;69.70;;;;;;5051455;28;20033;-56
2021/10/17 04:39:28;;;;;;;15.75;7.88;;;8.90;69.60;;;;;;5052108;28;20254;-58
2021/10/17 04:42:13;;;;;;;13.57;7.38;;;8.90;69.60;;;;;;5049823;28;20491;-56
2021/10/17 04:44:39;;;;;;;14.38;7.43;;;8.90;69.70;;;;;;5033711;28;20121;-56
2021/10/17 04:47:05;;;;;;;10.10;6.72;;;8.80;69.60;;;;;;5051539;28;20481;-56
2021/10/17 04:49:31;;;;;;;13.85;8.05;;;8.80;69.60;;;;;;5048022;28;20036;-53
2021/10/17 04:51:57;;;;;;;13.10;7.70;;;8.80;69.60;;;;;;5049540;28;20033;-50
2021/10/17 04:54:23;;;;;;;12.85;7.60;;;8.80;69.60;;;;;;5050942;28;20346;-56
2021/10/17 04:56:49;;;;;;;15.27;10.45;;;8.80;69.60;;;;;;5034315;28;20370;-55
2021/10/17 04:59:20;;;;;;;16.30;9.32;;;8.80;69.60;;;;;;5051540;28;20510;-56
2021/10/17 05:01:45;;;;;;;17.80;10.05;;;8.80;69.70;;;;;;5050863;28;20040;-53
2021/10/17 05:04:11;;;;;;;15.23;8.40;;;8.80;69.70;;;;;;5051593;28;20458;-52
2021/10/17 05:06:37;;;;;;;15.10;7.97;;;8.80;69.70;;;;;;5050757;28;20482;-53
2021/10/17 05:09:02;;;;;;;13.65;7.82;;;8.80;69.70;;;;;;5052244;28;20481;-51
2021/10/17 05:11:28;;;;;;;14.13;7.65;;;8.80;69.70;;;;;;5049523;28;20036;-54
2021/10/17 05:13:54;;;;;;;11.65;6.80;;;8.90;69.70;;;;;;5032965;28;20044;-52
2021/10/17 05:16:19;;;;;;;11.77;7.82;;;8.90;69.50;;;;;;5051679;28;20371;-57
2021/10/17 05:18:45;;;;;;;14.25;6.88;;;8.90;69.40;;;;;;5052677;28;20082;-49
2021/10/17 05:21:11;;;;;;;12.25;7.28;;;8.90;69.10;;;;;;5051655;28;20037;-52
2021/10/17 05:23:37;;;;;;;15.65;8.10;;;8.90;69.00;;;;;;5050580;28;20029;-51
2021/10/17 05:26:04;;;;;;;14.02;7.57;;;8.90;69.00;;;;;;5051782;28;20056;-54
2021/10/17 05:28:30;;;;;;;12.15;7.60;;;8.90;68.90;;;;;;5034577;28;20028;-50
2021/10/17 05:31:00;;;;;;;13.45;7.28;;;9.00;68.90;;;;;;5051308;28;20159;-53
2021/10/17 05:33:29;;;;;;;12.07;7.63;;;9.00;68.80;;;;;;5051070;28;20033;-57
2021/10/17 05:35:55;;;;;;;12.75;7.80;;;9.00;69.30;;;;;;5050791;28;20039;-52
2021/10/17 05:38:21;;;;;;;14.18;7.93;;;9.10;68.60;;;;;;5052398;28;20534;-58
2021/10/17 05:40:46;;;;;;;11.93;7.65;;;9.10;68.50;;;;;;5047028;28;20024;-52
2021/10/17 05:43:12;;;;;;;13.73;8.13;;;9.20;68.40;;;;;;5049305;28;20041;-53
2021/10/17 05:45:37;;;;;;;14.20;8.02;;;9.20;68.30;;;;;;5049678;28;20049;-54
2021/10/17 05:48:03;;;;;;;18.25;9.05;;;9.20;68.20;;;;;;5049885;28;20037;-53
2021/10/17 05:50:29;;;;;;;12.98;7.90;;;9.20;68.10;;;;;;5048912;28;20205;-50
2021/10/17 05:52:55;;;;;;;12.43;8.00;;;9.20;68.00;;;;;;5048281;28;20096;-56
2021/10/17 05:55:20;;;;;;;14.70;8.13;;;9.20;68.00;;;;;;5049208;28;20025;-57
2021/10/17 05:58:05;;;;;;;17.27;8.32;;;9.20;67.90;;;;;;5050794;28;20377;-56
2021/10/17 06:00:31;;;;;;;12.70;7.72;;;9.20;67.90;;;;;;5047645;28;20454;-56
2021/10/17 06:02:57;;;;;;;11.85;7.75;;;9.20;67.90;;;;;;5050832;28;20064;-53
2021/10/17 06:05:23;;;;;;;17.45;8.60;;;9.20;67.90;;;;;;5032025;28;20458;-52
2021/10/17 06:07:49;;;;;;;17.25;8.32;;;9.30;67.80;;;;;;5049808;28;20029;-55
2021/10/17 06:10:14;;;;;;;15.68;7.45;;;9.30;67.80;;;;;;5046353;28;20032;-59
2021/10/17 06:12:41;;;;;;;13.00;8.05;;;9.30;67.80;;;;;;5050372;28;20060;-50
2021/10/17 06:15:08;;;;;;;14.90;8.45;;;9.30;67.80;;;;;;5051108;28;20033;-53
2021/10/17 06:17:52;;;;;;;11.63;7.43;;;9.40;67.60;;;;;;5049660;28;20021;-56
2021/10/17 06:20:18;;;;;;;14.48;8.43;;;9.50;67.50;;;;;;5050351;28;20108;-53
2021/10/17 06:22:44;;;;;;;16.80;9.50;;;9.50;67.20;;;;;;5049017;28;20537;-57
2021/10/17 06:25:10;;;;;;;13.00;8.88;;;9.60;67.00;;;;;;5047577;28;20441;-55
2021/10/17 06:27:36;;;;;;;14.43;8.45;;;9.60;66.80;;;;;;5050853;28;20110;-52
2021/10/17 06:30:02;;;;;;;14.50;8.40;;;9.70;66.70;;;;;;5033359;28;20462;-58
2021/10/17 06:32:28;;;;;;;14.13;8.27;;;9.80;66.40;;;;;;5048670;28;20474;-57
2021/10/17 06:34:54;;;;;;;12.18;7.95;;;9.90;66.20;;;;;;5050463;28;20147;-51
2021/10/17 06:37:19;;;;;;;16.50;9.05;;;9.90;66.00;;;;;;5032020;28;20021;-56
2021/10/17 06:39:45;;;;;;;15.15;8.63;;;10.00;66.00;;;;;;5049752;28;20243;-56
2021/10/17 06:42:12;;;;;;;14.68;8.93;;;10.10;66.00;;;;;;5028832;28;20033;-59
2021/10/17 06:44:38;;;;;;;14.27;9.07;;;10.10;65.70;;;;;;5030118;28;20039;-51
2021/10/17 06:47:04;;;;;;;15.40;9.32;;;10.20;65.50;;;;;;5032162;28;20119;-51
2021/10/17 06:49:30;;;;;;;16.45;9.40;;;10.20;65.60;;;;;;5049187;28;20033;-56
2021/10/17 06:51:56;;;;;;;12.98;8.63;;;10.30;65.60;;;;;;5047323;28;20054;-56
2021/10/17 06:54:21;;;;;;;14.05;9.18;;;10.40;65.50;;;;;;5049430;28;20419;-57
2021/10/17 06:56:47;;;;;;;13.32;9.25;;;10.40;65.50;;;;;;5047876;28;20024;-58
2021/10/17 06:59:16;;;;;;;16.65;9.50;;;10.50;65.80;;;;;;5050781;28;20032;-56
2021/10/17 07:01:41;;;;;;;16.83;9.40;;;10.60;65.70;;;;;;5049113;28;20025;-56
2021/10/17 07:04:07;;;;;;;15.27;10.52;;;10.70;65.70;;;;;;5050465;28;20029;-53
2021/10/17 07:06:33;;;;;;;18.63;12.52;;;11.10;66.80;;;;;;5046505;28;20035;-54
2021/10/17 07:08:58;;;;;;;16.45;11.43;;;13.50;64.60;;;;;;5047772;28;20083;-52
2021/10/17 07:11:24;;;;;;;15.32;11.65;;;16.00;58.80;;;;;;5049700;28;20060;-56
2021/10/17 07:13:50;;;;;;;16.15;12.75;;;18.00;53.40;;;;;;5049710;28;20466;-57
2021/10/17 07:16:15;;;;;;;13.48;12.07;;;19.60;49.40;;;;;;5049651;28;20025;-55
2021/10/17 07:18:41;;;;;;;19.77;12.45;;;21.10;46.00;;;;;;5031432;28;20029;-56
2021/10/17 07:21:07;;;;;;;13.63;12.23;;;22.60;42.70;;;;;;5050016;28;20032;-55
2021/10/17 07:23:33;;;;;;;25.77;11.88;;;23.80;39.30;;;;;;5048759;28;20480;-56
2021/10/17 07:25:58;;;;;;;13.38;9.95;;;25.10;37.60;;;;;;5050362;28;20326;-56
2021/10/17 07:28:24;;;;;;;13.43;9.98;;;26.30;35.50;;;;;;5028804;28;20036;-57
2021/10/17 07:30:50;;;;;;;15.15;10.20;;;27.20;34.00;;;;;;5032458;28;20052;-57
2021/10/17 07:33:16;;;;;;;14.15;11.93;;;27.80;32.40;;;;;;5047633;28;20033;-56
2021/10/17 07:35:41;;;;;;;19.23;12.23;;;28.00;31.60;;;;;;5045210;28;20074;-55
2021/10/17 07:38:07;;;;;;;13.65;11.88;;;28.40;31.20;;;;;;5047805;28;20029;-54
2021/10/17 07:40:33;;;;;;;12.43;10.82;;;28.80;30.70;;;;;;5048031;28;20060;-57
2021/10/17 07:42:59;;;;;;;14.80;10.93;;;29.20;30.20;;;;;;5048026;28;20033;-53
2021/10/17 07:45:25;;;;;;;15.30;11.13;;;29.40;29.30;;;;;;5049138;28;20160;-57
2021/10/17 07:47:50;;;;;;;15.52;11.50;;;29.40;29.50;;;;;;5049145;28;20025;-57
2021/10/17 07:50:16;;;;;;;13.57;11.55;;;29.50;29.10;;;;;;5049403;28;20025;-58
2021/10/17 07:52:42;;;;;;;15.38;11.80;;;29.70;29.10;;;;;;5049099;28;20569;-57
2021/10/17 07:55:08;;;;;;;16.55;12.32;;;29.30;28.80;;;;;;5049534;28;20027;-57
2021/10/17 07:57:49;;;;;;;18.73;12.48;;;27.40;29.10;;;;;;5046090;28;20032;-57
2021/10/17 08:00:23;;;;;;;14.27;8.95;;;24.90;30.40;;;;;;5046709;28;20047;-58
2021/10/17 08:02:49;;;;;;;13.90;9.50;;;22.80;33.80;;;;;;5044753;28;20162;-60
2021/10/17 08:05:15;;;;;;;14.73;10.10;;;21.50;36.30;;;;;;5030405;28;20055;-58
2021/10/17 08:07:41;;;;;;;15.02;9.73;;;20.50;37.90;;;;;;5030606;28;20037;-60
2021/10/17 08:10:08;;;;;;;16.73;11.05;;;19.70;39.60;;;;;;5047390;28;20104;-59
2021/10/17 08:12:34;;;;;;;20.25;12.10;;;19.10;40.80;;;;;;5029649;28;20029;-60
2021/10/17 08:15:00;;;;;;;20.67;11.48;;;18.60;41.80;;;;;;5047586;28;20103;-56
2021/10/17 08:17:25;;;;;;;16.95;10.95;;;18.00;43.10;;;;;;5050705;28;20021;-56
2021/10/17 08:19:51;;;;;;;16.80;11.13;;;17.60;44.10;;;;;;5050442;28;20021;-55
2021/10/17 08:22:21;;;;;;;17.10;11.80;;;17.30;44.90;;;;;;5051117;28;20132;-54
2021/10/17 08:24:48;;;;;;;19.13;12.48;;;16.90;45.50;;;;;;5050391;28;20029;-56
2021/10/17 08:27:14;;;;;;;19.20;12.48;;;16.60;46.30;;;;;;5030933;28;20120;-58
2021/10/17 08:29:40;;;;;;;18.85;12.98;;;16.20;47.00;;;;;;5049626;28;20029;-58
2021/10/17 08:32:06;;;;;;;21.65;13.18;;;16.10;47.70;;;;;;5050300;28;20036;-53
2021/10/17 08:34:32;;;;;;;19.00;12.88;;;15.70;48.70;;;;;;5053805;28;20095;-60
2021/10/17 08:36:58;;;;;;;20.92;12.85;;;15.60;49.10;;;;;;5053586;28;20021;-57
2021/10/17 08:39:24;;;;;;;18.25;12.60;;;15.50;49.40;;;;;;5035498;28;20520;-56
2021/10/17 08:41:49;;;;;;;18.02;12.02;;;15.40;49.80;;;;;;5035410;28;20036;-57
2021/10/17 08:44:17;;;;;;;21.38;15.13;;;15.30;50.20;;;;;;5034782;28;20586;-60
2021/10/17 08:46:44;;;;;;;23.15;15.73;;;15.20;50.60;;;;;;5053126;28;20044;-57
2021/10/17 08:49:11;;;;;;;22.20;13.60;;;15.10;51.10;;;;;;5034841;28;20029;-57
2021/10/17 08:51:38;;;;;;;26.58;13.98;;;15.00;51.50;;;;;;5034770;28;20183;-59
2021/10/17 08:54:05;;;;;;;25.42;14.07;;;14.90;51.80;;;;;;5035403;28;20041;-58
2021/10/17 08:56:32;;;;;;;23.02;14.40;;;14.80;52.20;;;;;;5051926;28;20029;-55
2021/10/17 08:58:58;;;;;;;27.00;15.05;;;14.70;52.30;;;;;;5052612;28;20108;-54
2021/10/17 09:01:31;;;;;;;22.35;14.23;;;14.70;52.50;;;;;;5047623;28;20262;-57
2021/10/17 09:03:58;;;;;;;21.83;13.97;;;14.70;52.70;;;;;;5052014;28;20113;-59
2021/10/17 09:06:30;;;;;;;17.83;13.15;;;14.70;53.20;;;;;;5035246;28;20032;-55
2021/10/17 09:09:10;;;;;;;21.20;13.90;;;14.80;52.20;;;;;;5034831;28;20051;-57
2021/10/17 09:11:48;;;;;;;22.73;14.38;;;14.80;52.30;;;;;;5053058;28;20066;-61
2021/10/17 09:14:25;;;;;;;25.77;15.07;;;14.70;52.30;;;;;;5052691;28;20037;-57
2021/10/17 09:16:57;;;;;;;22.75;14.05;;;14.80;52.40;;;;;;5034088;28;20031;-55
2021/10/17 09:19:28;;;;;;;25.85;14.63;;;14.70;52.70;;;;;;5052924;28;20108;-55
2021/10/17 09:21:53;;;;;;;22.13;13.88;;;14.70;52.90;;;;;;5048386;28;20123;-56
2021/10/17 09:24:33;;;;;;;25.63;14.35;;;14.70;52.70;;;;;;5050278;28;20135;-51
2021/10/17 09:27:17;;;;;;;24.85;13.57;;;14.80;52.90;;;;;;5033655;28;20033;-57
2021/10/17 09:29:54;;;;;;;21.75;13.48;;;14.80;52.90;;;;;;5047566;28;20165;-58
2021/10/17 09:32:27;;;;;;;24.60;14.15;;;14.60;53.20;;;;;;5052091;28;20136;-57
2021/10/17 09:34:58;;;;;;;20.23;14.02;;;14.50;53.40;;;;;;5033602;28;20196;-56
2021/10/17 09:37:39;;;;;;;22.65;13.55;;;14.60;53.50;;;;;;5052438;28;20153;-60
2021/10/17 09:43:04;;;;;;;19.60;14.18;;;14.70;53.40;;;;;;5051466;28;20047;-57
2021/10/17 09:45:29;;;;;;;21.90;13.48;;;14.80;53.30;;;;;;5051751;28;20053;-61
2021/10/17 09:47:55;;;;;;;24.88;14.30;;;14.90;52.90;;;;;;5032871;28;20036;-56
2021/10/17 09:50:21;;;;;;;25.58;14.40;;;15.00;52.80;;;;;;5050931;28;20104;-57
2021/10/17 09:52:53;;;;;;;24.90;14.30;;;15.10;52.80;;;;;;5030500;28;20375;-58
2021/10/17 09:55:19;;;;;;;26.40;14.10;;;15.00;52.80;;;;;;5049029;28;20090;-55
2021/10/17 09:57:45;;;;;;;19.30;12.82;;;15.10;52.80;;;;;;5032532;28;20052;-55
2021/10/17 10:00:11;;;;;;;22.92;13.32;;;15.20;52.40;;;;;;5052373;28;20453;-60
2021/10/17 10:02:38;;;;;;;21.17;13.35;;;15.20;52.30;;;;;;5048816;28;20029;-59
2021/10/17 10:05:04;;;;;;;18.98;13.80;;;15.40;52.20;;;;;;5031821;28;20033;-53
2021/10/17 10:07:31;;;;;;;20.13;13.65;;;15.50;51.90;;;;;;5031832;28;20056;-57
2021/10/17 10:09:58;;;;;;;24.92;13.50;;;15.60;51.60;;;;;;5033051;28;20060;-59
2021/10/17 10:12:25;;;;;;;22.17;14.23;;;15.70;51.30;;;;;;5050578;28;20056;-59
2021/10/17 10:14:54;;;;;;;22.42;14.45;;;15.60;51.60;;;;;;5031675;28;20107;-60
2021/10/17 10:17:21;;;;;;;20.73;13.18;;;15.50;51.70;;;;;;5033588;28;20115;-60
2021/10/17 10:19:47;;;;;;;22.85;13.70;;;15.60;51.70;;;;;;5032341;28;20082;-59
2021/10/17 10:22:15;;;;;;;21.88;14.00;;;15.70;51.50;;;;;;5025934;28;20032;-56
2021/10/17 10:24:50;;;;;;;21.00;14.27;;;15.70;51.20;;;;;;5031622;28;20079;-57
2021/10/17 10:27:17;;;;;;;19.77;12.80;;;15.70;51.50;;;;;;5044641;28;20040;-57
2021/10/17 10:29:43;;;;;;;18.08;12.80;;;15.70;51.60;;;;;;5047813;28;20463;-55
2021/10/17 10:32:22;;;;;;;21.40;13.00;;;15.80;51.50;;;;;;5031845;28;20104;-62
2021/10/17 10:34:56;;;;;;;20.50;12.32;;;15.90;51.40;;;;;;5050268;28;20297;-60
2021/10/17 10:37:23;;;;;;;21.13;12.48;;;16.00;51.30;;;;;;5031817;28;20418;-60
2021/10/17 10:40:01;;;;;;;18.35;11.77;;;16.00;51.10;;;;;;5030070;28;20025;-59
2021/10/17 10:42:48;;;;;;;22.80;12.85;;;16.00;51.10;;;;;;5049457;28;20541;-54
2021/10/17 10:45:34;;;;;;;20.60;11.70;;;16.20;51.00;;;;;;5049568;28;20536;-57
2021/10/17 10:48:12;;;;;;;16.92;11.02;;;16.30;50.60;;;;;;5050309;28;20387;-58
2021/10/17 10:50:41;;;;;;;17.40;10.85;;;16.40;50.40;;;;;;5051394;28;20028;-60
2021/10/17 10:53:09;;;;;;;17.27;11.77;;;16.50;50.30;;;;;;5030477;28;20453;-58
2021/10/17 10:55:51;;;;;;;19.30;11.95;;;16.50;50.00;;;;;;5049100;28;20025;-58
2021/10/17 10:58:26;;;;;;;18.25;10.85;;;16.40;49.50;;;;;;5049801;28;20111;-57
2021/10/17 11:00:57;;;;;;;22.05;10.93;;;16.40;49.70;;;;;;5032340;28;20043;-60
2021/10/17 11:03:26;;;;;;;14.43;9.85;;;16.50;49.50;;;;;;5050762;28;20025;-59
2021/10/17 11:06:07;;;;;;;18.98;12.20;;;16.50;49.40;;;;;;5048384;28;20358;-58
2021/10/17 11:08:34;;;;;;;15.88;9.93;;;16.60;49.40;;;;;;5050721;28;20025;-54
2021/10/17 11:11:00;;;;;;;16.92;9.60;;;16.70;49.00;;;;;;5049690;28;20029;-54
2021/10/17 11:13:37;;;;;;;18.40;9.68;;;16.70;48.90;;;;;;5032870;28;20040;-58
2021/10/17 11:16:05;;;;;;;17.27;10.07;;;16.80;48.70;;;;;;5050531;28;20060;-55
2021/10/17 11:18:36;;;;;;;19.25;10.35;;;16.90;48.20;;;;;;5050543;28;20029;-52
2021/10/17 11:21:04;;;;;;;17.63;9.55;;;16.80;48.20;;;;;;5050991;28;20020;-57
2021/10/17 11:23:33;;;;;;;16.10;8.75;;;16.70;48.10;;;;;;5032622;28;20036;-53
2021/10/17 11:26:11;;;;;;;17.67;9.55;;;16.70;48.10;;;;;;5031087;28;20381;-58
2021/10/17 11:28:38;;;;;;;20.88;9.00;;;16.70;47.80;;;;;;5030714;28;20070;-61
2021/10/17 11:31:13;;;;;;;17.15;8.15;;;16.70;48.00;;;;;;5048927;28;20082;-56
2021/10/17 11:33:41;;;;;;;16.90;9.27;;;16.80;47.90;;;;;;5031707;28;20119;-62
2021/10/17 11:36:09;;;;;;;18.63;9.13;;;16.90;47.80;;;;;;5046410;28;20094;-58
2021/10/17 11:38:35;;;;;;;15.52;9.35;;;17.00;47.70;;;;;;5047079;28;20028;-52
2021/10/17 11:41:10;;;;;;;17.20;11.10;;;17.10;47.40;;;;;;5046979;28;20458;-58
2021/10/17 11:43:40;;;;;;;18.88;12.30;;;17.10;47.50;;;;;;5043766;28;20033;-61
2021/10/17 11:46:27;;;;;;;20.48;12.00;;;17.90;47.70;;;;;;5024497;28;20049;-55
2021/10/17 11:49:09;;;;;;;17.08;11.25;;;18.50;46.10;;;;;;5045320;28;20037;-54
2021/10/17 11:51:37;;;;;;;15.88;10.35;;;19.00;44.20;;;;;;5042445;28;20048;-59
2021/10/17 11:54:03;;;;;;;15.35;8.50;;;18.80;44.40;;;;;;5031258;28;20514;-59
2021/10/17 11:56:31;;;;;;;18.38;10.50;;;18.60;44.20;;;;;;5050103;28;20063;-59
2021/10/17 11:59:10;;;;;;;16.52;10.43;;;18.30;44.60;;;;;;5045398;28;20013;-56
2021/10/17 12:01:39;;;;;;;19.98;12.13;;;18.20;45.00;;;;;;5048954;28;20052;-58
2021/10/17 12:04:05;;;;;;;21.00;13.23;;;18.10;45.60;;;;;;5049204;28;20033;-56
2021/10/17 12:06:32;;;;;;;22.42;13.32;;;18.00;46.10;;;;;;5030469;28;20040;-52
2021/10/17 12:09:02;;;;;;;21.60;13.15;;;17.90;46.40;;;;;;5052203;28;20037;-60
2021/10/17 12:11:38;;;;;;;20.92;13.90;;;17.90;46.70;;;;;;5051908;28;20174;-60
2021/10/17 12:14:06;;;;;;;19.40;11.20;;;17.80;47.10;;;;;;5030271;28;20041;-56
2021/10/17 12:16:34;;;;;;;19.67;12.52;;;17.80;47.00;;;;;;5052798;28;20023;-60
2021/10/17 12:19:07;;;;;;;18.40;11.88;;;17.80;46.90;;;;;;5046565;28;20135;-61
2021/10/17 12:21:44;;;;;;;21.05;11.52;;;17.80;47.00;;;;;;5034844;28;20105;-59
2021/10/17 12:24:10;;;;;;;18.30;10.98;;;17.90;46.90;;;;;;5052812;28;20116;-55
2021/10/17 12:26:37;;;;;;;22.75;12.40;;;17.90;46.70;;;;;;5051682;28;20029;-55
2021/10/17 12:29:03;;;;;;;16.95;11.57;;;17.80;46.90;;;;;;5053413;28;20073;-60
2021/10/17 12:31:33;;;;;;;17.75;11.55;;;17.80;47.10;;;;;;5052838;28;20029;-60
2021/10/17 12:34:00;;;;;;;18.65;11.60;;;17.80;47.20;;;;;;5052333;28;20037;-57
2021/10/17 12:36:27;;;;;;;19.65;12.98;;;17.80;47.10;;;;;;5033168;28;20263;-62
2021/10/17 12:42:04;;;;;;;19.00;11.77;;;17.80;46.40;;;;;;5053361;28;20030;-58
2021/10/17 12:44:46;;;;;;;18.45;13.32;;;17.80;46.70;;;;;;5053376;28;20032;-58